sensor_id;sensor_type;location;lat;lon;timestamp;temperature;humidity
2723;DHT22;1369;53.216;10.396;2023-05-20T00:01:32;12.40;98.60
2723;DHT22;1369;53.216;10.396;2023-05-20T00:03:58;12.30;97.20
2723;DHT22;1369;53.216;10.396;2023-05-20T00:06:23;12.30;98.60
2723;DHT22;1369;53.216;10.396;2023-05-20T00:08:52;12.30;98.80
2723;DHT22;1369;53.216;10.396;2023-05-20T00:11:17;12.20;99.70
2723;DHT22;1369;53.216;10.396;2023-05-20T00:13:43;12.10;99.90
2723;DHT22;1369;53.216;10.396;2023-05-20T00:16:08;12.00;99.90
2723;DHT22;1369;53.216;10.396;2023-05-20T00:18:34;11.90;99.90
2723;DHT22;1369;53.216;10.396;2023-05-20T00:20:59;11.90;99.90
2723;DHT22;1369;53.216;10.396;2023-05-20T00:23:25;11.90;99.90
2723;DHT22;1369;53.216;10.396;2023-05-20T00:25:50;11.80;99.90
2723;DHT22;1369;53.216;10.396;2023-05-20T00:28:16;11.60;99.90
2723;DHT22;1369;53.216;10.396;2023-05-20T00:30:41;11.50;99.90
2723;DHT22;1369;53.216;10.396;2023-05-20T00:33:07;11.50;99.90
2723;DHT22;1369;53.216;10.396;2023-05-20T00:35:33;11.50;99.90
2723;DHT22;1369;53.216;10.396;2023-05-20T00:37:58;11.40;99.90
2723;DHT22;1369;53.216;10.396;2023-05-20T00:40:24;11.30;99.90
2723;DHT22;1369;53.216;10.396;2023-05-20T00:42:50;11.30;99.90
2723;DHT22;1369;53.216;10.396;2023-05-20T00:45:16;11.20;99.90
2723;DHT22;1369;53.216;10.396;2023-05-20T00:47:42;11.10;99.90
2723;DHT22;1369;53.216;10.396;2023-05-20T00:50:08;11.10;99.90
2723;DHT22;1369;53.216;10.396;2023-05-20T00:52:35;11.10;99.90
2723;DHT22;1369;53.216;10.396;2023-05-20T00:55:02;11.00;99.90
2723;DHT22;1369;53.216;10.396;2023-05-20T00:57:28;11.00;99.90
2723;DHT22;1369;53.216;10.396;2023-05-20T00:59:54;10.90;99.90
2723;DHT22;1369;53.216;10.396;2023-05-20T01:02:19;10.90;99.90
2723;DHT22;1369;53.216;10.396;2023-05-20T01:04:45;10.80;99.90
2723;DHT22;1369;53.216;10.396;2023-05-20T01:07:14;10.80;99.90
2723;DHT22;1369;53.216;10.396;2023-05-20T01:09:40;10.70;99.90
2723;DHT22;1369;53.216;10.396;2023-05-20T01:12:12;10.70;99.90
2723;DHT22;1369;53.216;10.396;2023-05-20T01:14:47;10.70;99.90
2723;DHT22;1369;53.216;10.396;2023-05-20T01:17:15;10.60;99.90
2723;DHT22;1369;53.216;10.396;2023-05-20T01:19:43;10.60;99.90
2723;DHT22;1369;53.216;10.396;2023-05-20T01:22:10;10.50;99.90
2723;DHT22;1369;53.216;10.396;2023-05-20T01:24:42;10.50;99.90
2723;DHT22;1369;53.216;10.396;2023-05-20T01:27:09;10.50;99.90
2723;DHT22;1369;53.216;10.396;2023-05-20T01:29:36;10.50;99.90
2723;DHT22;1369;53.216;10.396;2023-05-20T01:32:05;10.40;99.90
2723;DHT22;1369;53.216;10.396;2023-05-20T01:34:31;10.40;99.90
2723;DHT22;1369;53.216;10.396;2023-05-20T01:36:58;10.40;99.90
2723;DHT22;1369;53.216;10.396;2023-05-20T01:39:24;10.50;99.90
2723;DHT22;1369;53.216;10.396;2023-05-20T01:41:50;10.40;99.90
2723;DHT22;1369;53.216;10.396;2023-05-20T01:44:16;10.30;99.90
2723;DHT22;1369;53.216;10.396;2023-05-20T01:46:41;10.30;99.90
2723;DHT22;1369;53.216;10.396;2023-05-20T01:49:07;10.30;99.90
2723;DHT22;1369;53.216;10.396;2023-05-20T01:51:32;10.30;99.90
2723;DHT22;1369;53.216;10.396;2023-05-20T01:53:59;10.30;99.90
2723;DHT22;1369;53.216;10.396;2023-05-20T01:56:25;10.20;99.90
2723;DHT22;1369;53.216;10.396;2023-05-20T01:58:50;10.20;99.90
2723;DHT22;1369;53.216;10.396;2023-05-20T02:01:16;10.20;99.90
2723;DHT22;1369;53.216;10.396;2023-05-20T02:03:41;10.20;99.90
2723;DHT22;1369;53.216;10.396;2023-05-20T02:06:07;10.20;99.90
2723;DHT22;1369;53.216;10.396;2023-05-20T02:08:32;10.20;99.90
2723;DHT22;1369;53.216;10.396;2023-05-20T02:10:58;10.10;99.90
2723;DHT22;1369;53.216;10.396;2023-05-20T02:13:23;10.10;99.90
2723;DHT22;1369;53.216;10.396;2023-05-20T02:15:49;10.00;99.90
2723;DHT22;1369;53.216;10.396;2023-05-20T02:18:15;10.00;99.90
2723;DHT22;1369;53.216;10.396;2023-05-20T02:20:42;10.00;99.90
2723;DHT22;1369;53.216;10.396;2023-05-20T02:23:08;10.00;99.90
2723;DHT22;1369;53.216;10.396;2023-05-20T02:25:33;10.00;99.90
2723;DHT22;1369;53.216;10.396;2023-05-20T02:27:59;9.90;99.90
2723;DHT22;1369;53.216;10.396;2023-05-20T02:30:26;9.80;99.90
2723;DHT22;1369;53.216;10.396;2023-05-20T02:32:51;9.90;99.90
2723;DHT22;1369;53.216;10.396;2023-05-20T02:35:17;9.80;99.90
2723;DHT22;1369;53.216;10.396;2023-05-20T02:37:42;9.80;99.90
2723;DHT22;1369;53.216;10.396;2023-05-20T02:40:09;9.70;99.90
2723;DHT22;1369;53.216;10.396;2023-05-20T02:42:35;9.70;99.90
2723;DHT22;1369;53.216;10.396;2023-05-20T02:45:00;9.60;99.90
2723;DHT22;1369;53.216;10.396;2023-05-20T02:47:26;9.60;99.90
2723;DHT22;1369;53.216;10.396;2023-05-20T02:49:51;9.70;99.90
2723;DHT22;1369;53.216;10.396;2023-05-20T02:52:17;9.70;99.90
2723;DHT22;1369;53.216;10.396;2023-05-20T02:54:42;9.70;99.90
2723;DHT22;1369;53.216;10.396;2023-05-20T02:57:08;9.70;99.90
2723;DHT22;1369;53.216;10.396;2023-05-20T02:59:34;9.70;99.90
2723;DHT22;1369;53.216;10.396;2023-05-20T03:01:59;9.70;99.90
2723;DHT22;1369;53.216;10.396;2023-05-20T03:04:25;9.70;99.90
2723;DHT22;1369;53.216;10.396;2023-05-20T03:06:51;9.70;99.90
2723;DHT22;1369;53.216;10.396;2023-05-20T03:09:17;9.70;99.90
2723;DHT22;1369;53.216;10.396;2023-05-20T03:11:44;9.60;99.90
2723;DHT22;1369;53.216;10.396;2023-05-20T03:14:10;9.70;99.90
2723;DHT22;1369;53.216;10.396;2023-05-20T03:16:35;9.60;99.90
2723;DHT22;1369;53.216;10.396;2023-05-20T03:19:01;9.50;99.90
2723;DHT22;1369;53.216;10.396;2023-05-20T03:21:27;9.50;99.90
2723;DHT22;1369;53.216;10.396;2023-05-20T03:23:53;9.40;99.90
2723;DHT22;1369;53.216;10.396;2023-05-20T03:26:18;9.50;99.90
2723;DHT22;1369;53.216;10.396;2023-05-20T03:28:45;9.50;99.90
2723;DHT22;1369;53.216;10.396;2023-05-20T03:31:11;9.50;99.90
2723;DHT22;1369;53.216;10.396;2023-05-20T03:33:36;9.60;99.90
2723;DHT22;1369;53.216;10.396;2023-05-20T03:36:02;9.60;99.90
2723;DHT22;1369;53.216;10.396;2023-05-20T03:38:27;9.60;99.90
2723;DHT22;1369;53.216;10.396;2023-05-20T03:40:53;9.70;99.90
2723;DHT22;1369;53.216;10.396;2023-05-20T03:43:18;9.70;99.90
2723;DHT22;1369;53.216;10.396;2023-05-20T03:45:44;9.80;99.90
2723;DHT22;1369;53.216;10.396;2023-05-20T03:48:09;9.80;99.90
2723;DHT22;1369;53.216;10.396;2023-05-20T03:50:35;9.90;99.90
2723;DHT22;1369;53.216;10.396;2023-05-20T03:53:00;9.90;99.90
2723;DHT22;1369;53.216;10.396;2023-05-20T03:55:26;9.90;99.90
2723;DHT22;1369;53.216;10.396;2023-05-20T03:57:52;10.00;99.90
2723;DHT22;1369;53.216;10.396;2023-05-20T04:00:17;10.10;99.90
2723;DHT22;1369;53.216;10.396;2023-05-20T04:02:43;10.10;99.90
2723;DHT22;1369;53.216;10.396;2023-05-20T04:05:09;10.10;99.90
2723;DHT22;1369;53.216;10.396;2023-05-20T04:07:34;10.20;99.90
2723;DHT22;1369;53.216;10.396;2023-05-20T04:10:00;10.20;99.90
2723;DHT22;1369;53.216;10.396;2023-05-20T04:12:26;10.20;99.90
2723;DHT22;1369;53.216;10.396;2023-05-20T04:14:58;10.20;99.90
2723;DHT22;1369;53.216;10.396;2023-05-20T04:17:26;10.30;99.90
2723;DHT22;1369;53.216;10.396;2023-05-20T04:19:54;10.40;99.90
2723;DHT22;1369;53.216;10.396;2023-05-20T04:22:19;10.50;99.90
2723;DHT22;1369;53.216;10.396;2023-05-20T04:24:45;10.50;99.90
2723;DHT22;1369;53.216;10.396;2023-05-20T04:27:10;10.60;99.90
2723;DHT22;1369;53.216;10.396;2023-05-20T04:29:36;10.50;99.90
2723;DHT22;1369;53.216;10.396;2023-05-20T04:32:01;10.60;99.90
2723;DHT22;1369;53.216;10.396;2023-05-20T04:34:28;10.70;99.90
2723;DHT22;1369;53.216;10.396;2023-05-20T04:36:54;10.80;99.90
2723;DHT22;1369;53.216;10.396;2023-05-20T04:39:19;10.90;99.90
2723;DHT22;1369;53.216;10.396;2023-05-20T04:41:45;11.00;99.90
2723;DHT22;1369;53.216;10.396;2023-05-20T04:44:12;11.00;99.90
2723;DHT22;1369;53.216;10.396;2023-05-20T04:46:38;11.00;99.90
2723;DHT22;1369;53.216;10.396;2023-05-20T04:49:04;11.10;99.90
2723;DHT22;1369;53.216;10.396;2023-05-20T04:51:29;11.00;99.90
2723;DHT22;1369;53.216;10.396;2023-05-20T04:53:55;11.10;99.90
2723;DHT22;1369;53.216;10.396;2023-05-20T04:56:23;11.20;99.90
2723;DHT22;1369;53.216;10.396;2023-05-20T04:58:48;11.20;99.90
2723;DHT22;1369;53.216;10.396;2023-05-20T05:01:14;11.20;99.90
2723;DHT22;1369;53.216;10.396;2023-05-20T05:03:39;11.20;99.90
2723;DHT22;1369;53.216;10.396;2023-05-20T05:06:05;11.20;99.90
2723;DHT22;1369;53.216;10.396;2023-05-20T05:08:30;11.20;99.90
2723;DHT22;1369;53.216;10.396;2023-05-20T05:10:56;11.20;99.90
2723;DHT22;1369;53.216;10.396;2023-05-20T05:13:21;11.30;99.90
2723;DHT22;1369;53.216;10.396;2023-05-20T05:15:47;11.50;99.90
2723;DHT22;1369;53.216;10.396;2023-05-20T05:18:12;11.60;99.90
2723;DHT22;1369;53.216;10.396;2023-05-20T05:20:38;11.70;99.90
2723;DHT22;1369;53.216;10.396;2023-05-20T05:23:03;11.70;99.90
2723;DHT22;1369;53.216;10.396;2023-05-20T05:25:29;11.60;99.90
2723;DHT22;1369;53.216;10.396;2023-05-20T05:27:55;11.80;99.90
2723;DHT22;1369;53.216;10.396;2023-05-20T05:30:20;12.00;99.90
2723;DHT22;1369;53.216;10.396;2023-05-20T05:32:48;12.10;99.90
2723;DHT22;1369;53.216;10.396;2023-05-20T05:35:14;12.30;99.90
2723;DHT22;1369;53.216;10.396;2023-05-20T05:37:39;12.40;99.90
2723;DHT22;1369;53.216;10.396;2023-05-20T05:40:07;12.50;99.90
2723;DHT22;1369;53.216;10.396;2023-05-20T05:42:33;12.60;99.90
2723;DHT22;1369;53.216;10.396;2023-05-20T05:44:58;12.50;99.90
2723;DHT22;1369;53.216;10.396;2023-05-20T05:47:24;12.50;99.90
2723;DHT22;1369;53.216;10.396;2023-05-20T05:49:53;12.70;99.90
2723;DHT22;1369;53.216;10.396;2023-05-20T05:52:19;12.90;99.90
2723;DHT22;1369;53.216;10.396;2023-05-20T05:54:45;12.90;99.90
2723;DHT22;1369;53.216;10.396;2023-05-20T05:57:10;13.00;99.90
2723;DHT22;1369;53.216;10.396;2023-05-20T05:59:36;13.00;99.90
2723;DHT22;1369;53.216;10.396;2023-05-20T06:02:01;13.10;99.90
2723;DHT22;1369;53.216;10.396;2023-05-20T06:04:27;13.10;99.90
2723;DHT22;1369;53.216;10.396;2023-05-20T06:06:52;13.10;99.90
2723;DHT22;1369;53.216;10.396;2023-05-20T06:09:18;13.30;99.90
2723;DHT22;1369;53.216;10.396;2023-05-20T06:11:43;13.30;99.90
2723;DHT22;1369;53.216;10.396;2023-05-20T06:14:09;13.50;99.90
2723;DHT22;1369;53.216;10.396;2023-05-20T06:16:34;13.40;99.90
2723;DHT22;1369;53.216;10.396;2023-05-20T06:19:00;13.50;99.90
2723;DHT22;1369;53.216;10.396;2023-05-20T06:21:26;13.40;99.90
2723;DHT22;1369;53.216;10.396;2023-05-20T06:23:51;13.50;99.90
2723;DHT22;1369;53.216;10.396;2023-05-20T06:26:17;13.60;99.90
2723;DHT22;1369;53.216;10.396;2023-05-20T06:28:42;13.60;99.90
2723;DHT22;1369;53.216;10.396;2023-05-20T06:31:08;13.80;99.90
2723;DHT22;1369;53.216;10.396;2023-05-20T06:33:33;14.00;99.90
2723;DHT22;1369;53.216;10.396;2023-05-20T06:35:59;14.20;99.90
2723;DHT22;1369;53.216;10.396;2023-05-20T06:38:26;14.40;99.90
2723;DHT22;1369;53.216;10.396;2023-05-20T06:40:51;14.40;99.90
2723;DHT22;1369;53.216;10.396;2023-05-20T06:43:17;14.40;99.90
2723;DHT22;1369;53.216;10.396;2023-05-20T06:45:43;14.50;99.90
2723;DHT22;1369;53.216;10.396;2023-05-20T06:48:08;14.60;99.90
2723;DHT22;1369;53.216;10.396;2023-05-20T06:50:34;14.80;99.90
2723;DHT22;1369;53.216;10.396;2023-05-20T06:53:00;14.90;99.90
2723;DHT22;1369;53.216;10.396;2023-05-20T06:55:25;14.90;99.90
2723;DHT22;1369;53.216;10.396;2023-05-20T06:57:51;15.10;99.90
2723;DHT22;1369;53.216;10.396;2023-05-20T07:00:17;15.40;99.90
2723;DHT22;1369;53.216;10.396;2023-05-20T07:02:42;15.30;99.90
2723;DHT22;1369;53.216;10.396;2023-05-20T07:05:08;15.80;99.90
2723;DHT22;1369;53.216;10.396;2023-05-20T07:07:34;17.60;99.90
2723;DHT22;1369;53.216;10.396;2023-05-20T07:10:00;18.80;99.90
2723;DHT22;1369;53.216;10.396;2023-05-20T07:12:26;20.40;99.90
2723;DHT22;1369;53.216;10.396;2023-05-20T07:14:51;22.10;99.90
2723;DHT22;1369;53.216;10.396;2023-05-20T07:17:17;24.20;99.90
2723;DHT22;1369;53.216;10.396;2023-05-20T07:19:42;26.20;99.90
2723;DHT22;1369;53.216;10.396;2023-05-20T07:22:08;26.40;98.10
2723;DHT22;1369;53.216;10.396;2023-05-20T07:24:35;27.60;97.70
2723;DHT22;1369;53.216;10.396;2023-05-20T07:27:01;27.90;93.20
2723;DHT22;1369;53.216;10.396;2023-05-20T07:29:26;28.20;91.80
2723;DHT22;1369;53.216;10.396;2023-05-20T07:31:52;27.80;90.70
2723;DHT22;1369;53.216;10.396;2023-05-20T07:34:18;28.00;87.40
2723;DHT22;1369;53.216;10.396;2023-05-20T07:36:43;28.80;89.60
2723;DHT22;1369;53.216;10.396;2023-05-20T07:39:09;28.30;82.30
2723;DHT22;1369;53.216;10.396;2023-05-20T07:41:35;27.30;89.20
2723;DHT22;1369;53.216;10.396;2023-05-20T07:44:03;28.10;84.70
2723;DHT22;1369;53.216;10.396;2023-05-20T07:46:29;28.80;85.40
2723;DHT22;1369;53.216;10.396;2023-05-20T07:48:54;28.70;84.50
2723;DHT22;1369;53.216;10.396;2023-05-20T07:51:20;28.30;81.40
2723;DHT22;1369;53.216;10.396;2023-05-20T07:53:45;27.60;78.90
2723;DHT22;1369;53.216;10.396;2023-05-20T07:56:11;28.20;82.00
2723;DHT22;1369;53.216;10.396;2023-05-20T07:58:36;28.00;78.20
2723;DHT22;1369;53.216;10.396;2023-05-20T08:01:02;26.60;77.90
2723;DHT22;1369;53.216;10.396;2023-05-20T08:03:28;25.90;82.10
2723;DHT22;1369;53.216;10.396;2023-05-20T08:05:53;24.90;80.00
2723;DHT22;1369;53.216;10.396;2023-05-20T08:08:19;24.70;83.70
2723;DHT22;1369;53.216;10.396;2023-05-20T08:10:44;24.40;82.90
2723;DHT22;1369;53.216;10.396;2023-05-20T08:13:10;24.50;84.40
2723;DHT22;1369;53.216;10.396;2023-05-20T08:15:35;25.10;84.50
2723;DHT22;1369;53.216;10.396;2023-05-20T08:18:01;25.50;85.70
2723;DHT22;1369;53.216;10.396;2023-05-20T08:20:28;26.00;83.80
2723;DHT22;1369;53.216;10.396;2023-05-20T08:22:54;25.70;81.70
2723;DHT22;1369;53.216;10.396;2023-05-20T08:25:20;25.80;82.80
2723;DHT22;1369;53.216;10.396;2023-05-20T08:27:47;24.50;83.70
2723;DHT22;1369;53.216;10.396;2023-05-20T08:30:13;23.90;83.60
2723;DHT22;1369;53.216;10.396;2023-05-20T08:32:39;23.10;85.30
2723;DHT22;1369;53.216;10.396;2023-05-20T08:35:05;21.20;85.10
2723;DHT22;1369;53.216;10.396;2023-05-20T08:37:32;21.20;88.80
2723;DHT22;1369;53.216;10.396;2023-05-20T08:39:57;21.70;88.10
2723;DHT22;1369;53.216;10.396;2023-05-20T08:42:23;21.40;86.70
2723;DHT22;1369;53.216;10.396;2023-05-20T08:44:53;20.90;88.00
2723;DHT22;1369;53.216;10.396;2023-05-20T08:47:21;20.40;90.10
2723;DHT22;1369;53.216;10.396;2023-05-20T08:49:50;19.70;90.40
2723;DHT22;1369;53.216;10.396;2023-05-20T08:52:17;19.30;91.20
2723;DHT22;1369;53.216;10.396;2023-05-20T08:54:47;19.00;92.10
2723;DHT22;1369;53.216;10.396;2023-05-20T08:57:14;19.00;92.90
2723;DHT22;1369;53.216;10.396;2023-05-20T08:59:43;18.60;93.30
2723;DHT22;1369;53.216;10.396;2023-05-20T09:02:09;18.70;93.20
2723;DHT22;1369;53.216;10.396;2023-05-20T09:04:36;18.70;93.00
2723;DHT22;1369;53.216;10.396;2023-05-20T09:07:02;18.70;93.80
2723;DHT22;1369;53.216;10.396;2023-05-20T09:09:28;18.80;94.00
2723;DHT22;1369;53.216;10.396;2023-05-20T09:11:54;18.50;93.20
2723;DHT22;1369;53.216;10.396;2023-05-20T09:14:19;18.60;93.70
2723;DHT22;1369;53.216;10.396;2023-05-20T09:16:46;18.60;93.90
2723;DHT22;1369;53.216;10.396;2023-05-20T09:19:12;18.80;94.30
2723;DHT22;1369;53.216;10.396;2023-05-20T09:21:40;19.20;93.80
2723;DHT22;1369;53.216;10.396;2023-05-20T09:24:06;19.70;94.60
2723;DHT22;1369;53.216;10.396;2023-05-20T09:26:32;20.70;94.90
2723;DHT22;1369;53.216;10.396;2023-05-20T09:28:58;21.30;93.50
2723;DHT22;1369;53.216;10.396;2023-05-20T09:31:29;21.40;92.30
2723;DHT22;1369;53.216;10.396;2023-05-20T09:33:55;20.80;92.10
2723;DHT22;1369;53.216;10.396;2023-05-20T09:36:22;20.00;91.90
2723;DHT22;1369;53.216;10.396;2023-05-20T09:38:51;19.80;93.30
2723;DHT22;1369;53.216;10.396;2023-05-20T09:41:22;19.70;93.20
2723;DHT22;1369;53.216;10.396;2023-05-20T09:43:49;19.40;93.40
2723;DHT22;1369;53.216;10.396;2023-05-20T09:46:15;19.60;94.00
2723;DHT22;1369;53.216;10.396;2023-05-20T09:48:42;19.80;94.40
2723;DHT22;1369;53.216;10.396;2023-05-20T09:51:09;19.90;94.60
2723;DHT22;1369;53.216;10.396;2023-05-20T09:53:35;19.80;93.70
2723;DHT22;1369;53.216;10.396;2023-05-20T09:56:01;19.90;93.50
2723;DHT22;1369;53.216;10.396;2023-05-20T09:58:28;19.60;94.00
2723;DHT22;1369;53.216;10.396;2023-05-20T10:00:53;19.90;94.40
2723;DHT22;1369;53.216;10.396;2023-05-20T10:03:21;19.80;94.60
2723;DHT22;1369;53.216;10.396;2023-05-20T10:11:32;19.30;94.10
2723;DHT22;1369;53.216;10.396;2023-05-20T10:22:05;19.10;94.20
2723;DHT22;1369;53.216;10.396;2023-05-20T10:24:35;18.80;94.10
2723;DHT22;1369;53.216;10.396;2023-05-20T10:27:03;18.70;95.00
2723;DHT22;1369;53.216;10.396;2023-05-20T10:29:40;18.70;94.90
2723;DHT22;1369;53.216;10.396;2023-05-20T10:32:07;18.60;94.70
2723;DHT22;1369;53.216;10.396;2023-05-20T10:34:44;18.50;95.00
2723;DHT22;1369;53.216;10.396;2023-05-20T10:37:22;18.30;95.50
2723;DHT22;1369;53.216;10.396;2023-05-20T10:39:47;18.00;95.70
2723;DHT22;1369;53.216;10.396;2023-05-20T10:42:13;17.80;95.40
2723;DHT22;1369;53.216;10.396;2023-05-20T10:44:42;17.70;96.20
2723;DHT22;1369;53.216;10.396;2023-05-20T10:47:08;17.90;96.10
2723;DHT22;1369;53.216;10.396;2023-05-20T10:49:34;18.10;96.20
2723;DHT22;1369;53.216;10.396;2023-05-20T10:52:02;18.20;96.10
2723;DHT22;1369;53.216;10.396;2023-05-20T10:54:28;18.30;96.00
2723;DHT22;1369;53.216;10.396;2023-05-20T10:56:59;18.40;96.50
2723;DHT22;1369;53.216;10.396;2023-05-20T10:59:25;18.50;95.90
2723;DHT22;1369;53.216;10.396;2023-05-20T11:01:51;18.50;96.10
2723;DHT22;1369;53.216;10.396;2023-05-20T11:04:18;18.60;96.30
2723;DHT22;1369;53.216;10.396;2023-05-20T11:06:50;18.60;96.50
2723;DHT22;1369;53.216;10.396;2023-05-20T11:09:18;18.60;96.50
2723;DHT22;1369;53.216;10.396;2023-05-20T11:11:43;18.40;96.70
2723;DHT22;1369;53.216;10.396;2023-05-20T11:14:09;18.40;96.80
2723;DHT22;1369;53.216;10.396;2023-05-20T11:16:38;18.30;97.20
2723;DHT22;1369;53.216;10.396;2023-05-20T11:19:06;18.60;97.20
2723;DHT22;1369;53.216;10.396;2023-05-20T11:21:32;18.40;96.90
2723;DHT22;1369;53.216;10.396;2023-05-20T11:23:58;18.50;97.50
2723;DHT22;1369;53.216;10.396;2023-05-20T11:26:23;18.50;96.80
2723;DHT22;1369;53.216;10.396;2023-05-20T11:28:49;18.60;97.90
2723;DHT22;1369;53.216;10.396;2023-05-20T11:31:15;18.50;97.20
2723;DHT22;1369;53.216;10.396;2023-05-20T11:33:42;18.40;97.30
2723;DHT22;1369;53.216;10.396;2023-05-20T11:36:08;18.50;97.60
2723;DHT22;1369;53.216;10.396;2023-05-20T11:38:35;18.40;97.70
2723;DHT22;1369;53.216;10.396;2023-05-20T11:41:00;18.50;97.90
2723;DHT22;1369;53.216;10.396;2023-05-20T11:43:26;18.50;98.40
2723;DHT22;1369;53.216;10.396;2023-05-20T11:45:54;18.40;98.40
2723;DHT22;1369;53.216;10.396;2023-05-20T11:48:20;18.40;98.20
2723;DHT22;1369;53.216;10.396;2023-05-20T11:50:46;18.20;98.30
2723;DHT22;1369;53.216;10.396;2023-05-20T11:53:17;18.20;98.70
2723;DHT22;1369;53.216;10.396;2023-05-20T11:55:54;18.20;98.70
2723;DHT22;1369;53.216;10.396;2023-05-20T11:58:22;18.20;98.70
2723;DHT22;1369;53.216;10.396;2023-05-20T12:00:48;18.20;98.80
2723;DHT22;1369;53.216;10.396;2023-05-20T12:03:14;18.20;99.20
2723;DHT22;1369;53.216;10.396;2023-05-20T12:05:40;18.40;99.50
2723;DHT22;1369;53.216;10.396;2023-05-20T12:08:06;18.20;98.90
2723;DHT22;1369;53.216;10.396;2023-05-20T12:10:32;17.90;99.90
2723;DHT22;1369;53.216;10.396;2023-05-20T12:12:58;18.00;99.60
2723;DHT22;1369;53.216;10.396;2023-05-20T12:15:23;18.10;99.50
2723;DHT22;1369;53.216;10.396;2023-05-20T12:17:52;18.10;99.50
2723;DHT22;1369;53.216;10.396;2023-05-20T12:20:20;18.10;99.90
2723;DHT22;1369;53.216;10.396;2023-05-20T12:22:46;18.00;99.90
2723;DHT22;1369;53.216;10.396;2023-05-20T12:25:16;17.70;99.90
2723;DHT22;1369;53.216;10.396;2023-05-20T12:27:42;17.90;99.90
2723;DHT22;1369;53.216;10.396;2023-05-20T12:30:19;18.00;99.90
2723;DHT22;1369;53.216;10.396;2023-05-20T12:32:46;17.80;99.90
2723;DHT22;1369;53.216;10.396;2023-05-20T12:35:12;17.80;99.90
2723;DHT22;1369;53.216;10.396;2023-05-20T12:37:39;17.80;99.90
2723;DHT22;1369;53.216;10.396;2023-05-20T12:40:06;18.00;99.90
2723;DHT22;1369;53.216;10.396;2023-05-20T12:42:36;18.10;99.90
2723;DHT22;1369;53.216;10.396;2023-05-20T12:45:02;18.30;99.90
2723;DHT22;1369;53.216;10.396;2023-05-20T12:47:28;18.40;99.90
2723;DHT22;1369;53.216;10.396;2023-05-20T12:49:53;18.50;99.90
2723;DHT22;1369;53.216;10.396;2023-05-20T12:52:19;18.50;99.90
2723;DHT22;1369;53.216;10.396;2023-05-20T12:54:44;18.50;99.90
2723;DHT22;1369;53.216;10.396;2023-05-20T12:57:10;18.00;99.90
2723;DHT22;1369;53.216;10.396;2023-05-20T12:59:36;18.00;99.90
2723;DHT22;1369;53.216;10.396;2023-05-20T13:02:01;18.00;99.90
2723;DHT22;1369;53.216;10.396;2023-05-20T13:04:27;18.20;99.90
2723;DHT22;1369;53.216;10.396;2023-05-20T13:06:52;18.20;99.90
2723;DHT22;1369;53.216;10.396;2023-05-20T13:09:18;18.30;99.90
2723;DHT22;1369;53.216;10.396;2023-05-20T13:11:44;18.10;99.90
2723;DHT22;1369;53.216;10.396;2023-05-20T13:14:09;18.20;99.90
2723;DHT22;1369;53.216;10.396;2023-05-20T13:16:36;18.40;99.90
2723;DHT22;1369;53.216;10.396;2023-05-20T13:19:01;18.40;99.90
2723;DHT22;1369;53.216;10.396;2023-05-20T13:21:27;18.50;99.90
2723;DHT22;1369;53.216;10.396;2023-05-20T13:23:52;18.50;99.90
2723;DHT22;1369;53.216;10.396;2023-05-20T13:26:18;18.30;99.90
2723;DHT22;1369;53.216;10.396;2023-05-20T13:28:44;18.30;99.90
2723;DHT22;1369;53.216;10.396;2023-05-20T13:31:09;18.30;99.90
2723;DHT22;1369;53.216;10.396;2023-05-20T13:33:35;18.30;99.90
2723;DHT22;1369;53.216;10.396;2023-05-20T13:36:01;18.30;99.90
2723;DHT22;1369;53.216;10.396;2023-05-20T13:38:26;17.90;99.90
2723;DHT22;1369;53.216;10.396;2023-05-20T13:40:52;18.10;99.90
2723;DHT22;1369;53.216;10.396;2023-05-20T13:43:18;18.10;99.90
2723;DHT22;1369;53.216;10.396;2023-05-20T13:45:43;18.10;99.90
2723;DHT22;1369;53.216;10.396;2023-05-20T13:48:09;18.30;99.90
2723;DHT22;1369;53.216;10.396;2023-05-20T13:50:35;18.60;99.90
2723;DHT22;1369;53.216;10.396;2023-05-20T13:53:01;18.70;99.90
2723;DHT22;1369;53.216;10.396;2023-05-20T13:55:26;18.50;99.90
2723;DHT22;1369;53.216;10.396;2023-05-20T13:57:52;18.70;99.90
2723;DHT22;1369;53.216;10.396;2023-05-20T14:00:19;18.50;99.90
2723;DHT22;1369;53.216;10.396;2023-05-20T14:02:44;18.20;99.90
2723;DHT22;1369;53.216;10.396;2023-05-20T14:05:10;18.40;99.90
2723;DHT22;1369;53.216;10.396;2023-05-20T14:07:36;18.30;99.90
2723;DHT22;1369;53.216;10.396;2023-05-20T14:10:02;18.20;99.90
2723;DHT22;1369;53.216;10.396;2023-05-20T14:12:27;18.30;99.90
2723;DHT22;1369;53.216;10.396;2023-05-20T14:14:53;18.40;99.90
2723;DHT22;1369;53.216;10.396;2023-05-20T14:17:18;18.60;99.90
2723;DHT22;1369;53.216;10.396;2023-05-20T14:19:44;18.70;99.90
2723;DHT22;1369;53.216;10.396;2023-05-20T14:22:09;18.70;99.90
2723;DHT22;1369;53.216;10.396;2023-05-20T14:24:38;18.80;99.90
2723;DHT22;1369;53.216;10.396;2023-05-20T14:27:03;18.40;99.90
2723;DHT22;1369;53.216;10.396;2023-05-20T14:29:29;18.50;99.90
2723;DHT22;1369;53.216;10.396;2023-05-20T14:31:54;18.50;99.90
2723;DHT22;1369;53.216;10.396;2023-05-20T14:34:20;18.70;99.90
2723;DHT22;1369;53.216;10.396;2023-05-20T14:36:46;18.70;99.90
2723;DHT22;1369;53.216;10.396;2023-05-20T14:39:12;18.90;99.90
2723;DHT22;1369;53.216;10.396;2023-05-20T14:41:37;18.90;99.90
2723;DHT22;1369;53.216;10.396;2023-05-20T14:44:03;19.00;99.90
2723;DHT22;1369;53.216;10.396;2023-05-20T14:46:28;19.20;99.90
2723;DHT22;1369;53.216;10.396;2023-05-20T14:48:54;18.70;99.90
2723;DHT22;1369;53.216;10.396;2023-05-20T14:51:19;18.40;99.90
2723;DHT22;1369;53.216;10.396;2023-05-20T14:53:45;18.40;99.90
2723;DHT22;1369;53.216;10.396;2023-05-20T14:56:11;18.70;99.90
2723;DHT22;1369;53.216;10.396;2023-05-20T14:58:36;18.80;99.90
2723;DHT22;1369;53.216;10.396;2023-05-20T15:01:01;18.70;99.90
2723;DHT22;1369;53.216;10.396;2023-05-20T15:03:27;18.70;99.90
2723;DHT22;1369;53.216;10.396;2023-05-20T15:05:53;18.70;99.90
2723;DHT22;1369;53.216;10.396;2023-05-20T15:08:19;18.90;99.90
2723;DHT22;1369;53.216;10.396;2023-05-20T15:10:45;19.20;99.90
2723;DHT22;1369;53.216;10.396;2023-05-20T15:13:10;18.80;99.90
2723;DHT22;1369;53.216;10.396;2023-05-20T15:15:36;18.70;99.90
2723;DHT22;1369;53.216;10.396;2023-05-20T15:18:01;18.90;99.90
2723;DHT22;1369;53.216;10.396;2023-05-20T15:20:27;18.70;99.90
2723;DHT22;1369;53.216;10.396;2023-05-20T15:22:53;18.80;99.90
2723;DHT22;1369;53.216;10.396;2023-05-20T15:25:18;19.00;99.90
2723;DHT22;1369;53.216;10.396;2023-05-20T15:27:44;19.10;99.90
2723;DHT22;1369;53.216;10.396;2023-05-20T15:30:10;19.10;99.90
2723;DHT22;1369;53.216;10.396;2023-05-20T15:32:36;19.00;99.90
2723;DHT22;1369;53.216;10.396;2023-05-20T15:35:02;19.10;99.90
2723;DHT22;1369;53.216;10.396;2023-05-20T15:37:28;19.10;99.90
2723;DHT22;1369;53.216;10.396;2023-05-20T15:39:53;19.10;99.90
2723;DHT22;1369;53.216;10.396;2023-05-20T15:42:19;18.90;99.90
2723;DHT22;1369;53.216;10.396;2023-05-20T15:44:45;18.40;99.90
2723;DHT22;1369;53.216;10.396;2023-05-20T15:47:11;18.20;99.90
2723;DHT22;1369;53.216;10.396;2023-05-20T15:49:37;18.40;99.90
2723;DHT22;1369;53.216;10.396;2023-05-20T15:52:02;18.30;99.90
2723;DHT22;1369;53.216;10.396;2023-05-20T15:54:28;18.50;99.90